Time;durP1;ratioP1;P1;durP2;ratioP2;P2;SDS_P1;SDS_P2;PMS_P1;PMS_P2;Temp;Humidity;BMP_temperature;BMP_pressure;BME280_temperature;BME280_humidity;BME280_pressure;Samples;Min_cycle;Max_cycle;Signal;HPM_P1;HPM_P2
2021/12/16 00:05:31;;;;;;;77.85;36.63;;;11.00;62.90;;;;;;5522208;23;20100;-91
2021/12/16 00:07:59;;;;;;;74.85;36.35;;;11.00;62.90;;;;;;4924762;29;20529;-91
2021/12/16 00:10:40;;;;;;;74.93;35.85;;;11.10;62.50;;;;;;4919979;29;20035;-91
2021/12/16 00:34:39;;;;;;;52.08;26.52;;;10.80;63.20;;;;;;4924606;29;20131;-92
2021/12/16 00:37:05;;;;;;;70.07;35.17;;;10.50;63.90;;;;;;4922392;29;20126;-92
2021/12/16 00:47:48;;;;;;;83.53;38.08;;;9.00;67.40;;;;;;5809554;23;20028;-89
2021/12/16 00:55:55;;;;;;;78.57;39.97;;;9.60;66.20;;;;;;4977377;28;20049;-93
2021/12/16 00:58:32;;;;;;;80.40;39.10;;;9.90;65.80;;;;;;4960734;28;20031;-92
2021/12/16 01:03:57;;;;;;;87.18;39.97;;;10.40;63.70;;;;;;4967770;28;20534;-94
2021/12/16 01:06:51;;;;;;;83.00;38.15;;;10.40;63.60;;;;;;4940835;29;20114;-91
2021/12/16 01:50:35;;;;;;;84.68;37.28;;;9.50;65.90;;;;;;4957333;29;20086;-92
2021/12/16 01:53:18;;;;;;;68.07;34.75;;;9.40;65.70;;;;;;4940422;29;20030;-91
2021/12/16 01:55:54;;;;;;;86.60;38.72;;;9.50;65.50;;;;;;4937224;29;20043;-91
2021/12/16 01:58:23;;;;;;;83.80;37.90;;;9.70;64.80;;;;;;4932961;29;20118;-92
2021/12/16 02:01:09;;;;;;;80.83;37.63;;;9.60;65.50;;;;;;4970719;23;20043;-91
2021/12/16 02:03:42;;;;;;;85.55;38.28;;;10.10;63.90;;;;;;4956222;29;20023;-92
2021/12/16 02:06:25;;;;;;;85.70;39.25;;;10.30;63.60;;;;;;4955905;29;20086;-91
2021/12/16 02:12:57;;;;;;;82.43;38.10;;;10.70;62.20;;;;;;4916504;29;20039;-89
2021/12/16 02:35:10;;;;;;;89.03;37.72;;;10.20;63.90;;;;;;5257773;23;20039;-90
2021/12/16 02:37:36;;;;;;;91.13;37.15;;;10.10;64.30;;;;;;4845478;29;20121;-92
2021/12/16 02:40:33;;;;;;;82.00;35.90;;;10.30;64.30;;;;;;4842860;29;20040;-91
2021/12/16 02:43:09;;;;;;;80.57;36.85;;;10.10;64.00;;;;;;4840074;29;20078;-90
2021/12/16 02:48:37;;;;;;;74.15;34.03;;;9.20;66.10;;;;;;4855242;29;20065;-90
2021/12/16 02:51:25;;;;;;;81.90;36.25;;;8.80;67.70;;;;;;4841758;29;20030;-91
2021/12/16 02:53:59;;;;;;;85.90;37.03;;;8.90;68.00;;;;;;4827316;29;20091;-90
2021/12/16 02:56:25;;;;;;;76.30;34.50;;;9.20;67.50;;;;;;4833385;29;20057;-90
2021/12/16 02:59:04;;;;;;;86.30;35.85;;;9.50;66.40;;;;;;4826993;29;20072;-90
2021/12/16 03:04:26;;;;;;;82.60;35.13;;;9.40;66.60;;;;;;4845257;29;20033;-88
2021/12/16 03:06:56;;;;;;;75.50;33.30;;;9.50;66.50;;;;;;4844080;29;20037;-90
2021/12/16 03:09:46;;;;;;;84.22;36.10;;;9.90;65.50;;;;;;4844444;23;20117;-92
2021/12/16 03:15:05;;;;;;;79.70;34.97;;;10.10;64.50;;;;;;4946791;29;20065;-89
2021/12/16 03:17:56;;;;;;;66.03;31.08;;;10.10;64.70;;;;;;4920616;29;20047;-89
2021/12/16 03:20:49;;;;;;;73.20;32.47;;;9.40;66.20;;;;;;4938621;29;20027;-91
2021/12/16 03:37:15;;;;;;;75.88;34.20;;;10.30;64.40;;;;;;4954286;29;20379;-92
2021/12/16 03:40:06;;;;;;;85.32;36.65;;;10.50;65.00;;;;;;5171039;23;20048;-84
2021/12/16 03:42:56;;;;;;;74.93;33.67;;;10.60;64.60;;;;;;4901887;29;20471;-90
2021/12/16 03:48:43;;;;;;;81.07;34.13;;;10.70;65.10;;;;;;4902622;29;20096;-90
2021/12/16 03:51:13;;;;;;;79.78;36.53;;;10.80;64.40;;;;;;4902296;29;20088;-85
2021/12/16 03:53:43;;;;;;;82.95;34.47;;;11.00;64.40;;;;;;4903082;29;20040;-86
2021/12/16 03:56:09;;;;;;;81.17;34.47;;;11.20;63.70;;;;;;4900476;29;20124;-84
2021/12/16 03:58:35;;;;;;;73.20;32.70;;;11.20;62.50;;;;;;4903647;29;20032;-87
2021/12/16 04:01:05;;;;;;;78.85;32.97;;;11.30;62.20;;;;;;4903421;29;20105;-86
2021/12/16 04:03:31;;;;;;;80.45;33.95;;;11.20;62.60;;;;;;4917064;23;20055;-89
2021/12/16 04:06:13;;;;;;;78.63;34.85;;;11.40;62.20;;;;;;4940044;29;20128;-88
2021/12/16 04:08:39;;;;;;;87.22;35.60;;;11.50;61.80;;;;;;4943661;28;20019;-89
2021/12/16 04:12:18;;;;;;;75.22;33.38;;;11.60;61.60;;;;;;4940212;29;20391;-89
2021/12/16 04:14:45;;;;;;;77.55;33.58;;;11.90;61.10;;;;;;4878683;29;20052;-89
2021/12/16 04:17:12;;;;;;;78.88;33.63;;;11.80;60.60;;;;;;4881140;23;20029;-88
2021/12/16 04:19:42;;;;;;;71.65;33.83;;;11.70;60.70;;;;;;4937131;29;20051;-88
2021/12/16 04:22:37;;;;;;;78.82;34.72;;;11.70;60.80;;;;;;4932901;29;20035;-89
2021/12/16 04:25:10;;;;;;;69.68;33.75;;;11.70;60.50;;;;;;4938184;29;20042;-88
2021/12/16 04:28:04;;;;;;;75.10;33.13;;;11.70;60.70;;;;;;4943982;29;20067;-87
2021/12/16 04:30:31;;;;;;;92.00;36.90;;;11.30;62.50;;;;;;4939028;29;20031;-88
2021/12/16 04:39:47;;;;;;;83.30;41.35;;;8.30;65.50;;;;;;4939224;29;20039;-88
2021/12/16 04:42:16;;;;;;;99.50;44.70;;;8.40;66.70;;;;;;4933405;29;20063;-87
2021/12/16 04:44:42;;;;;;;99.18;44.80;;;8.90;65.80;;;;;;4935392;29;20061;-88
2021/12/16 04:47:09;;;;;;;96.22;45.78;;;9.60;63.40;;;;;;4935648;29;20074;-89
2021/12/16 04:50:07;;;;;;;91.22;44.80;;;10.20;61.90;;;;;;4933977;29;20023;-89
2021/12/16 04:52:32;;;;;;;91.10;42.47;;;10.70;60.20;;;;;;4929853;29;20500;-89
2021/12/16 04:55:25;;;;;;;81.43;43.13;;;10.40;60.40;;;;;;4932185;29;20119;-88
2021/12/16 04:57:51;;;;;;;80.85;41.55;;;9.90;61.50;;;;;;4933469;29;20031;-87
2021/12/16 05:00:45;;;;;;;74.07;40.25;;;9.80;62.20;;;;;;4935665;29;20026;-86
2021/12/16 05:03:11;;;;;;;76.88;41.08;;;9.90;62.00;;;;;;4938694;29;20032;-89
2021/12/16 05:05:46;;;;;;;79.43;41.35;;;10.10;61.50;;;;;;4937947;29;20095;-90
2021/12/16 05:08:13;;;;;;;79.55;42.67;;;10.30;60.90;;;;;;4938825;29;20083;-86
2021/12/16 05:10:39;;;;;;;93.68;46.38;;;10.10;60.90;;;;;;4956827;28;20082;-87
2021/12/16 05:13:25;;;;;;;84.70;43.45;;;10.20;60.90;;;;;;4949683;28;20028;-83
2021/12/16 05:15:52;;;;;;;94.55;45.10;;;10.60;60.20;;;;;;4938713;29;20039;-86
2021/12/16 05:18:23;;;;;;;76.95;38.88;;;10.80;60.00;;;;;;4954152;28;20047;-90
2021/12/16 05:20:56;;;;;;;91.07;44.65;;;10.90;59.70;;;;;;4938819;29;20039;-86
2021/12/16 05:24:30;;;;;;;78.25;40.30;;;10.50;60.80;;;;;;4956011;29;20035;-88
2021/12/16 05:26:59;;;;;;;90.88;45.47;;;10.20;61.60;;;;;;4881195;23;20140;31
2021/12/16 05:30:07;;;;;;;112.17;54.00;;;10.30;61.90;;;;;;4920895;29;20046;-86
2021/12/16 05:32:32;;;;;;;103.25;47.05;;;10.50;61.20;;;;;;4937364;29;20358;-85
2021/12/16 05:35:35;;;;;;;97.70;45.72;;;10.50;61.70;;;;;;4937153;29;20130;-84
2021/12/16 05:41:23;;;;;;;77.65;35.78;;;10.60;61.80;;;;;;4885141;23;20105;-84
2021/12/16 05:43:50;;;;;;;76.05;36.83;;;10.70;61.00;;;;;;4959273;28;20496;-85
2021/12/16 05:46:18;;;;;;;78.78;36.22;;;10.70;61.00;;;;;;4959520;28;20023;-85
2021/12/16 05:48:45;;;;;;;71.82;33.65;;;10.70;60.80;;;;;;4978857;23;20935;-84
2021/12/16 05:51:21;;;;;;;71.40;33.08;;;10.50;61.30;;;;;;4939740;29;20035;-87
2021/12/16 05:53:49;;;;;;;70.28;33.75;;;10.10;62.40;;;;;;4940038;29;20122;-86
2021/12/16 05:56:14;;;;;;;77.00;35.92;;;9.90;63.00;;;;;;4940489;29;20550;-84
2021/12/16 05:58:42;;;;;;;79.22;36.63;;;9.90;63.20;;;;;;4957098;29;20019;-87
2021/12/16 06:01:12;;;;;;;80.22;35.45;;;10.40;62.40;;;;;;4940197;29;20031;-86
2021/12/16 06:03:40;;;;;;;81.00;37.28;;;10.80;61.30;;;;;;4956851;28;20030;-88
2021/12/16 06:06:06;;;;;;;85.57;37.35;;;11.10;60.90;;;;;;4939916;29;20099;-86
2021/12/16 06:08:32;;;;;;;103.03;42.75;;;11.30;60.30;;;;;;4950513;28;20038;-88
2021/12/16 06:11:19;;;;;;;97.53;45.75;;;11.40;60.00;;;;;;4958627;28;20027;-89
2021/12/16 06:14:01;;;;;;;78.30;37.10;;;11.40;59.70;;;;;;4939550;29;20389;-88
2021/12/16 06:27:35;;;;;;;116.82;44.35;;;10.40;64.10;;;;;;4937311;29;20110;-86
2021/12/16 06:30:04;;;;;;;113.32;43.22;;;10.50;64.10;;;;;;4936389;29;20032;-85
2021/12/16 06:32:30;;;;;;;148.07;48.05;;;10.70;63.40;;;;;;4926340;29;20027;-85
2021/12/16 06:35:24;;;;;;;114.53;44.35;;;10.90;63.10;;;;;;4956052;28;20114;-90
2021/12/16 06:38:19;;;;;;;124.38;46.67;;;11.10;62.40;;;;;;4938636;29;20028;-89
2021/12/16 06:40:45;;;;;;;117.22;43.75;;;10.60;64.10;;;;;;4952021;29;20051;-90
2021/12/16 06:43:18;;;;;;;113.52;41.48;;;10.40;63.90;;;;;;4800014;23;10002609;-89
2021/12/16 06:45:48;;;;;;;133.95;46.47;;;10.30;64.80;;;;;;4912929;29;20232;-91
2021/12/16 06:48:19;;;;;;;103.03;40.72;;;10.20;64.70;;;;;;4896220;29;20071;-88
2021/12/16 06:50:55;;;;;;;105.13;41.90;;;10.00;65.70;;;;;;4901142;29;20047;-88
2021/12/16 06:53:28;;;;;;;137.75;40.58;;;9.80;67.40;;;;;;4917842;29;20039;-89
2021/12/16 07:05:21;;;;;;;105.13;40.78;;;9.60;67.20;;;;;;4841827;29;20105;-86
2021/12/16 07:07:48;;;;;;;97.55;41.05;;;9.60;66.70;;;;;;4826194;29;20033;-88
2021/12/16 08:20:10;;;;;;;114.82;50.63;;;11.00;65.60;;;;;;5981497;23;20030;-92
2021/12/16 08:22:36;;;;;;;100.63;67.28;;;11.00;65.10;;;;;;4959577;28;20035;-93
2021/12/16 08:25:03;;;;;;;100.68;68.30;;;10.80;66.30;;;;;;4960964;28;20026;-90
2021/12/16 08:27:28;;;;;;;75.82;44.05;;;10.80;65.60;;;;;;4961156;28;20106;-92
2021/12/16 08:29:54;;;;;;;77.47;45.83;;;11.10;65.90;;;;;;4961257;28;20026;-90
2021/12/16 09:10:22;;;;;;;62.97;48.35;;;14.50;57.70;;;;;;5158759;23;20414;-85
2021/12/16 09:18:41;;;;;;;37.53;24.08;;;14.40;58.40;;;;;;5192151;23;20020;-90
2021/12/16 09:21:18;;;;;;;39.63;25.95;;;15.60;57.10;;;;;;4979015;28;20034;-93
2021/12/16 09:23:49;;;;;;;37.70;23.58;;;16.10;55.30;;;;;;4979107;28;20097;-91
2021/12/16 09:26:15;;;;;;;35.15;21.17;;;16.00;55.50;;;;;;4979067;28;20106;-90
2021/12/16 09:28:41;;;;;;;35.28;24.63;;;16.90;54.40;;;;;;4996406;28;20033;-91
2021/12/16 09:31:12;;;;;;;33.78;19.85;;;17.30;52.90;;;;;;4978716;28;20018;-91
2021/12/16 09:33:42;;;;;;;34.92;20.75;;;17.40;52.40;;;;;;4978938;28;20022;-89
2021/12/16 09:36:27;;;;;;;;;;;16.70;53.10;;;;;;4979269;28;20062;-87
2021/12/16 09:39:27;;;;;;;53.75;36.55;;;15.50;54.90;;;;;;4978715;28;19910;-90
2021/12/16 09:41:56;;;;;;;44.63;24.58;;;14.20;57.40;;;;;;4978519;28;20029;-90
2021/12/16 09:44:24;;;;;;;58.38;40.75;;;13.70;58.80;;;;;;4979152;28;20049;-89
2021/12/16 09:50:37;;;;;;;65.68;38.17;;;12.60;61.40;;;;;;4995764;28;20429;-88
2021/12/16 09:53:04;;;;;;;59.10;34.60;;;12.10;62.70;;;;;;4995901;28;20359;-89
2021/12/16 09:56:23;;;;;;;73.35;44.75;;;12.60;62.20;;;;;;4978432;28;20038;-88
2021/12/16 09:58:50;;;;;;;46.83;28.30;;;13.50;60.90;;;;;;4978926;28;20037;-88
2021/12/16 10:01:18;;;;;;;60.78;38.97;;;14.10;59.30;;;;;;4978476;28;20410;-89
2021/12/16 10:04:04;;;;;;;43.72;26.80;;;14.50;58.10;;;;;;4995749;28;20041;-88
2021/12/16 10:07:13;;;;;;;52.60;32.15;;;14.20;57.50;;;;;;4977997;28;20030;-89
2021/12/16 10:09:40;;;;;;;44.30;26.90;;;14.00;58.30;;;;;;4978526;28;20029;-89
2021/12/16 10:12:12;;;;;;;42.60;24.95;;;13.90;59.40;;;;;;4995400;28;20026;-88
2021/12/16 10:31:36;;;;;;;49.17;29.15;;;13.80;59.30;;;;;;4975653;23;20414;-87
2021/12/16 10:34:05;;;;;;;41.50;25.95;;;14.10;58.70;;;;;;4960009;28;20122;-89
2021/12/16 10:36:37;;;;;;;58.60;32.53;;;14.80;58.00;;;;;;4959191;28;20172;-89
2021/12/16 10:39:08;;;;;;;96.43;50.92;;;14.80;56.80;;;;;;4958813;28;20015;-88
2021/12/16 10:41:37;;;;;;;67.70;36.63;;;14.40;57.50;;;;;;4958922;28;20019;-88
2021/12/16 10:44:41;;;;;;;61.90;35.22;;;14.40;58.00;;;;;;4958979;28;20034;-87
2021/12/16 10:47:12;;;;;;;75.65;37.15;;;14.40;57.60;;;;;;4958689;28;20027;-87
2021/12/16 10:49:48;;;;;;;44.35;26.30;;;13.30;59.80;;;;;;4959323;28;20135;-88
2021/12/16 10:52:27;;;;;;;42.72;23.20;;;13.90;60.10;;;;;;4958824;28;20118;-90
2021/12/16 10:54:54;;;;;;;55.10;31.38;;;14.00;59.30;;;;;;4967056;23;20047;-87
2021/12/16 10:57:26;;;;;;;42.65;24.63;;;15.20;58.00;;;;;;4970300;28;20023;-86
2021/12/16 10:59:53;;;;;;;52.42;28.45;;;15.90;55.80;;;;;;4955358;29;20019;-86
2021/12/16 12:12:41;;;;;;;40.67;24.65;;;13.60;61.20;;;;;;4934272;29;20047;-86
2021/12/16 12:15:33;;;;;;;39.35;23.67;;;13.90;60.10;;;;;;4918797;29;20036;-87
2021/12/16 12:17:59;;;;;;;70.90;33.67;;;14.20;59.70;;;;;;4919155;29;20052;-87
2021/12/16 12:24:03;;;;;;;36.22;21.83;;;14.40;59.30;;;;;;4877468;29;20080;-87
2021/12/16 12:27:04;;;;;;;36.22;22.35;;;14.40;58.90;;;;;;4877556;29;20041;-87
2021/12/16 12:29:33;;;;;;;35.50;20.90;;;14.80;58.40;;;;;;4843565;29;20041;-86
2021/12/16 12:32:31;;;;;;;35.35;22.13;;;14.30;58.70;;;;;;4843793;29;20505;-87
2021/12/16 12:46:00;;;;;;;39.70;22.85;;;14.50;58.70;;;;;;5911982;23;20051;-89
2021/12/16 12:48:26;;;;;;;38.88;22.33;;;14.10;59.80;;;;;;4959419;29;20122;-88
2021/12/16 12:50:57;;;;;;;38.58;22.08;;;13.80;59.80;;;;;;4942437;29;20054;-93
2021/12/16 13:12:40;;;;;;;39.17;22.90;;;13.50;60.50;;;;;;4918869;29;20259;-94
2021/12/16 13:27:37;;;;;;;33.80;19.92;;;12.70;63.10;;;;;;5039221;23;20046;-89
2021/12/16 13:33:12;;;;;;;33.22;19.77;;;12.60;63.40;;;;;;4938661;29;20023;-87
2021/12/16 13:35:47;;;;;;;32.30;19.35;;;12.60;63.20;;;;;;4921505;29;20122;-86
2021/12/16 13:38:14;;;;;;;35.42;21.52;;;12.50;63.60;;;;;;4921886;29;20024;-86
2021/12/16 13:40:43;;;;;;;42.15;24.92;;;12.70;63.40;;;;;;4937760;29;20030;-87
2021/12/16 13:43:25;;;;;;;35.17;22.52;;;12.70;63.10;;;;;;4938181;29;20027;-87
2021/12/16 14:03:24;;;;;;;;;;;12.80;63.00;;;;;;4938543;29;20074;-84
2021/12/16 14:09:19;;;;;;;33.05;20.30;;;13.00;62.70;;;;;;4879216;29;20385;-85
2021/12/16 14:15:10;;;;;;;30.75;18.98;;;13.00;62.30;;;;;;4879098;29;20366;-86
2021/12/16 14:17:55;;;;;;;33.78;20.90;;;12.80;62.70;;;;;;4878948;29;20106;-88
2021/12/16 14:24:21;;;;;;;31.48;19.27;;;12.90;63.00;;;;;;4879524;29;20173;-83
2021/12/16 14:27:19;;;;;;;30.88;18.75;;;12.90;62.70;;;;;;4875790;29;20161;-84
2021/12/16 14:37:21;;;;;;;41.88;23.25;;;12.50;63.50;;;;;;4897589;29;20057;-87
2021/12/16 14:40:09;;;;;;;27.75;18.20;;;12.60;63.60;;;;;;4897048;29;20033;-86
2021/12/16 14:48:23;;;;;;;28.60;17.75;;;12.00;65.10;;;;;;4956410;28;20015;-85
2021/12/16 14:51:13;;;;;;;30.45;18.98;;;12.20;64.70;;;;;;4938898;28;20027;-84
2021/12/16 14:53:48;;;;;;;34.85;20.85;;;12.00;64.80;;;;;;4939340;29;20376;-88
2021/12/16 14:56:20;;;;;;;36.92;23.38;;;12.20;64.80;;;;;;4939235;29;20431;-87
2021/12/16 14:58:50;;;;;;;28.83;17.70;;;12.40;63.90;;;;;;4938998;29;20024;-88
2021/12/16 15:01:25;;;;;;;27.17;17.13;;;12.20;64.20;;;;;;4938948;29;20023;-85
2021/12/16 15:03:52;;;;;;;29.30;18.92;;;12.40;64.20;;;;;;4938691;29;20030;-87
2021/12/16 15:06:56;;;;;;;35.65;19.08;;;12.60;63.40;;;;;;4939593;29;20482;-86
2021/12/16 15:09:33;;;;;;;43.90;23.23;;;12.70;63.20;;;;;;4938751;29;20027;-87
2021/12/16 15:45:25;;;;;;;33.78;20.50;;;12.20;64.30;;;;;;4936384;29;20547;-86
2021/12/16 15:47:56;;;;;;;44.72;24.95;;;12.20;64.50;;;;;;4919374;29;20035;-89
2021/12/16 15:50:49;;;;;;;31.50;19.58;;;12.20;64.60;;;;;;4919591;29;20023;-89
2021/12/16 15:53:21;;;;;;;64.10;28.45;;;12.10;64.20;;;;;;4919421;29;20522;-87
2021/12/16 15:55:56;;;;;;;32.42;19.98;;;11.80;65.10;;;;;;4936161;29;20099;-85
2021/12/16 15:58:26;;;;;;;40.80;22.70;;;12.10;64.80;;;;;;4919081;29;20075;-89
2021/12/16 16:00:57;;;;;;;48.95;29.73;;;12.00;65.00;;;;;;4919108;29;20031;-87
2021/12/16 16:03:26;;;;;;;35.70;23.08;;;11.70;65.20;;;;;;4921038;29;20027;-87
2021/12/16 16:05:58;;;;;;;33.38;21.58;;;12.00;65.10;;;;;;4922539;29;20380;-88
2021/12/16 16:08:27;;;;;;;48.85;24.80;;;12.10;64.60;;;;;;4923559;29;20035;-88
2021/12/16 16:11:01;;;;;;;35.70;20.67;;;12.20;64.30;;;;;;4923013;29;20392;-87
2021/12/16 16:13:37;;;;;;;30.13;18.83;;;12.10;64.60;;;;;;4922571;29;20028;-84
2021/12/16 16:16:14;;;;;;;28.33;17.60;;;12.20;64.00;;;;;;4922878;29;20035;-85
2021/12/16 16:18:42;;;;;;;28.05;17.27;;;12.10;64.40;;;;;;4939484;29;20096;-83
2021/12/16 16:21:32;;;;;;;28.27;17.33;;;12.20;64.50;;;;;;4923392;29;20495;-86
2021/12/16 16:24:03;;;;;;;29.93;17.30;;;12.00;64.80;;;;;;4939732;29;20028;-84
2021/12/16 16:26:30;;;;;;;30.77;18.10;;;12.00;65.20;;;;;;4923290;29;20172;-85
2021/12/16 16:29:03;;;;;;;26.17;16.27;;;12.40;64.30;;;;;;4938580;29;20034;-86
2021/12/16 16:31:31;;;;;;;38.95;23.23;;;12.70;63.60;;;;;;4938356;29;20028;-84
2021/12/16 16:37:36;;;;;;;40.70;23.17;;;12.10;63.90;;;;;;4918223;29;20397;-84
2021/12/16 16:44:11;;;;;;;27.95;16.83;;;12.30;63.70;;;;;;4851281;29;20048;-87
2021/12/16 16:46:44;;;;;;;38.90;22.20;;;12.00;64.60;;;;;;4843598;29;20030;-83
2021/12/16 16:49:26;;;;;;;47.92;29.50;;;11.80;65.20;;;;;;4843261;29;20475;-87
2021/12/16 16:52:44;;;;;;;27.17;17.02;;;12.30;64.40;;;;;;4843619;29;20030;-84
2021/12/16 16:55:17;;;;;;;29.15;17.23;;;11.60;65.60;;;;;;4824995;29;20072;-83
2021/12/16 16:57:47;;;;;;;28.77;16.80;;;11.90;64.90;;;;;;4824925;29;20038;-85
2021/12/16 17:00:21;;;;;;;68.13;34.15;;;12.30;63.70;;;;;;4824889;29;20044;-83
2021/12/16 17:02:56;;;;;;;51.75;30.85;;;12.40;63.20;;;;;;4824956;29;20039;-85
2021/12/16 17:05:30;;;;;;;31.77;20.40;;;12.20;63.90;;;;;;4809798;29;20046;-85
2021/12/16 17:08:11;;;;;;;36.58;23.85;;;12.40;63.50;;;;;;4810175;29;20061;-87
2021/12/16 17:10:46;;;;;;;27.15;18.27;;;12.40;63.60;;;;;;4824761;29;20042;-86
2021/12/16 17:13:36;;;;;;;26.90;16.02;;;12.20;63.00;;;;;;4821207;29;20399;-84
2021/12/16 17:18:42;;;;;;;26.08;15.02;;;12.10;63.90;;;;;;4824750;29;20109;-84
2021/12/16 17:21:23;;;;;;;34.85;21.35;;;12.30;63.80;;;;;;4824603;29;20035;-87
2021/12/16 17:23:55;;;;;;;25.20;15.60;;;11.90;64.20;;;;;;4824729;29;20034;-83
2021/12/16 17:26:26;;;;;;;25.63;15.00;;;12.20;63.60;;;;;;4824442;29;20109;-85
2021/12/16 17:28:56;;;;;;;24.38;14.48;;;12.70;62.50;;;;;;4824530;29;20033;-85
2021/12/16 17:31:36;;;;;;;24.17;14.30;;;13.00;61.10;;;;;;4856605;29;20466;-87
2021/12/16 17:34:10;;;;;;;25.13;15.05;;;12.70;61.60;;;;;;4937146;29;20036;-87
2021/12/16 17:36:41;;;;;;;26.90;14.52;;;12.50;62.00;;;;;;4937087;29;20023;-85
2021/12/16 17:39:11;;;;;;;63.33;35.20;;;12.50;61.50;;;;;;4938400;29;20028;-87
2021/12/16 17:41:38;;;;;;;36.22;22.08;;;12.30;62.00;;;;;;4936830;29;20095;-84
2021/12/16 17:47:34;;;;;;;26.05;16.90;;;11.50;64.20;;;;;;4983606;23;20573;-88
2021/12/16 17:50:02;;;;;;;39.90;26.17;;;11.40;64.50;;;;;;4960378;28;20026;-88
2021/12/16 17:52:32;;;;;;;26.50;17.48;;;11.50;64.60;;;;;;4944208;28;20019;-88
2021/12/16 17:55:01;;;;;;;30.88;18.85;;;11.50;63.90;;;;;;4960007;28;20041;-87
2021/12/16 17:57:38;;;;;;;36.05;23.10;;;11.80;63.70;;;;;;4959992;28;20023;-87
2021/12/16 18:00:30;;;;;;;25.52;15.13;;;12.00;63.20;;;;;;4961138;28;20015;-88
2021/12/16 18:03:23;;;;;;;20.60;12.95;;;11.60;63.30;;;;;;4959096;28;20142;-86
2021/12/16 18:05:53;;;;;;;26.02;14.75;;;11.40;64.10;;;;;;4960165;28;20034;-90
2021/12/16 18:08:36;;;;;;;23.67;14.75;;;11.20;64.60;;;;;;4960199;28;20023;-84
2021/12/16 18:11:18;;;;;;;24.45;14.73;;;10.90;65.70;;;;;;4946789;29;20023;-88
2021/12/16 18:13:45;;;;;;;22.42;14.10;;;10.90;65.60;;;;;;4952365;28;20105;-88
2021/12/16 18:16:24;;;;;;;25.60;14.63;;;11.00;65.20;;;;;;4959649;28;20101;-88
2021/12/16 18:18:55;;;;;;;24.80;14.77;;;11.20;65.10;;;;;;4940638;29;20398;-89
2021/12/16 18:21:21;;;;;;;24.83;13.80;;;11.00;65.60;;;;;;4940738;29;20059;-87
2021/12/16 18:23:52;;;;;;;23.38;14.05;;;11.10;64.80;;;;;;4946549;28;20429;-91
2021/12/16 18:28:55;;;;;;;45.07;26.30;;;10.90;65.80;;;;;;4901970;23;10002203;-87
2021/12/16 18:31:28;;;;;;;34.92;22.00;;;11.00;65.40;;;;;;4921114;29;20434;-87
2021/12/16 18:37:17;;;;;;;26.95;15.70;;;11.60;64.00;;;;;;4946130;23;20522;-88
2021/12/16 18:39:48;;;;;;;26.20;15.68;;;11.50;64.00;;;;;;4901217;29;20102;-85
2021/12/16 18:42:19;;;;;;;25.33;14.68;;;11.50;64.40;;;;;;4918567;29;20023;-86
2021/12/16 18:44:46;;;;;;;;;;;11.70;63.60;;;;;;4910703;29;20358;-87
2021/12/16 18:50:06;;;;;;;29.15;16.60;;;11.00;65.20;;;;;;4937453;29;20074;-87
2021/12/16 18:52:46;;;;;;;29.88;15.68;;;10.80;66.60;;;;;;4901304;29;20372;-89
2021/12/16 18:55:15;;;;;;;32.83;21.05;;;11.00;66.20;;;;;;4931434;23;20055;-87
2021/12/16 18:57:41;;;;;;;94.80;53.75;;;11.00;66.40;;;;;;4970122;28;20095;-87
2021/12/16 19:00:08;;;;;;;27.45;16.48;;;11.10;65.90;;;;;;4975859;28;20110;-86
2021/12/16 19:02:34;;;;;;;186.50;128.70;;;11.40;65.00;;;;;;4952233;28;20019;-88
2021/12/16 19:05:00;;;;;;;37.28;23.52;;;11.30;65.70;;;;;;4964802;28;20225;-88
2021/12/16 19:07:29;;;;;;;93.63;68.03;;;11.60;64.60;;;;;;4961160;28;20019;-87
2021/12/16 19:09:57;;;;;;;38.25;25.52;;;11.60;64.40;;;;;;4955040;29;20019;-87
2021/12/16 19:12:41;;;;;;;76.93;64.50;;;11.90;64.20;;;;;;4953406;29;20022;-87
2021/12/16 19:15:15;;;;;;;42.88;29.23;;;11.90;64.30;;;;;;4954310;29;20494;-86
2021/12/16 19:17:42;;;;;;;400.02;260.25;;;11.80;64.30;;;;;;4952506;28;20420;-88
2021/12/16 19:20:13;;;;;;;370.08;201.57;;;11.70;64.30;;;;;;4945863;28;20030;-86
2021/12/16 19:22:39;;;;;;;144.75;86.78;;;11.30;65.60;;;;;;4955444;29;20374;-89
2021/12/16 19:25:08;;;;;;;44.05;27.85;;;11.10;66.30;;;;;;4955802;28;20078;-86
2021/12/16 19:27:34;;;;;;;60.85;42.50;;;11.30;65.60;;;;;;4950644;29;20028;-89
2021/12/16 19:30:00;;;;;;;112.53;78.00;;;11.40;65.90;;;;;;4936009;29;20043;-91
2021/12/16 19:32:27;;;;;;;164.82;121.70;;;11.30;66.20;;;;;;4947701;28;20024;-88
2021/12/16 19:35:10;;;;;;;201.43;138.18;;;11.50;65.80;;;;;;4953845;28;20035;-85
2021/12/16 19:37:36;;;;;;;50.47;28.67;;;11.30;65.80;;;;;;4956538;23;20363;-88
2021/12/16 19:43:06;;;;;;;33.90;19.73;;;11.10;67.40;;;;;;4971709;23;20125;-92
2021/12/16 19:45:35;;;;;;;150.60;93.45;;;11.10;66.90;;;;;;4939822;29;20030;-91
2021/12/16 19:48:05;;;;;;;53.33;32.78;;;11.20;67.50;;;;;;4955362;28;20038;-86
2021/12/16 19:50:34;;;;;;;38.88;24.05;;;11.30;66.90;;;;;;4958175;28;20081;-89
2021/12/16 19:53:02;;;;;;;37.03;21.95;;;11.60;66.10;;;;;;4958266;28;20030;-89
2021/12/16 19:55:28;;;;;;;58.35;39.67;;;11.10;67.10;;;;;;4958129;28;20107;-87
2021/12/16 19:57:54;;;;;;;37.72;23.55;;;11.20;67.30;;;;;;4958178;28;20038;-88
2021/12/16 20:00:28;;;;;;;38.83;22.50;;;11.30;66.90;;;;;;4957929;28;20023;-87
2021/12/16 20:02:57;;;;;;;34.10;20.58;;;11.40;67.00;;;;;;4948786;28;20020;-86
2021/12/16 20:05:24;;;;;;;37.28;22.88;;;11.40;66.20;;;;;;4957675;28;20545;-91
2021/12/16 20:07:54;;;;;;;50.60;34.97;;;11.20;66.80;;;;;;4957771;28;20040;-87
2021/12/16 20:10:28;;;;;;;101.50;81.47;;;11.10;67.40;;;;;;4975426;28;20027;-89
2021/12/16 20:12:58;;;;;;;39.50;23.73;;;11.50;66.60;;;;;;4993849;23;20066;-88
2021/12/16 20:15:34;;;;;;;34.38;22.80;;;11.10;67.20;;;;;;4956565;28;20042;-88
2021/12/16 20:18:00;;;;;;;45.67;32.22;;;11.20;67.30;;;;;;4958086;28;20065;-87
2021/12/16 20:20:35;;;;;;;40.25;28.10;;;11.20;68.10;;;;;;4957833;28;20050;-88
2021/12/16 20:23:27;;;;;;;37.17;22.55;;;11.30;67.00;;;;;;4957441;28;20366;-86
2021/12/16 20:25:59;;;;;;;36.58;21.40;;;11.00;67.90;;;;;;4957738;28;20031;-86
2021/12/16 20:28:42;;;;;;;34.70;20.63;;;11.20;67.50;;;;;;4957976;28;20031;-87
2021/12/16 20:31:20;;;;;;;36.88;25.25;;;11.40;66.90;;;;;;4943792;28;20074;-90
2021/12/16 20:33:54;;;;;;;39.92;25.42;;;11.40;66.30;;;;;;4957316;28;20030;-91
2021/12/16 20:36:39;;;;;;;47.22;33.58;;;11.50;66.80;;;;;;4957344;28;20041;-86
2021/12/16 20:39:19;;;;;;;36.30;24.35;;;11.60;66.30;;;;;;4957137;28;20019;-86
2021/12/16 20:41:52;;;;;;;33.05;21.67;;;11.70;65.90;;;;;;4957346;28;20340;-86
2021/12/16 20:44:23;;;;;;;30.58;18.50;;;11.60;65.80;;;;;;4954389;29;20031;-86
2021/12/16 20:46:53;;;;;;;31.70;19.30;;;11.50;66.40;;;;;;4952272;28;20018;-88
2021/12/16 20:49:32;;;;;;;34.33;21.80;;;11.60;66.10;;;;;;4934335;23;20397;-86
2021/12/16 20:52:06;;;;;;;29.77;18.48;;;11.80;65.10;;;;;;4902386;29;20535;-85
2021/12/16 20:54:35;;;;;;;28.52;18.73;;;11.30;66.70;;;;;;4910558;23;20096;-88
2021/12/16 20:57:02;;;;;;;30.27;20.35;;;11.40;67.00;;;;;;4938755;29;20050;-86
2021/12/16 20:59:32;;;;;;;27.20;17.58;;;11.10;67.20;;;;;;4940626;29;20031;-90
2021/12/16 21:02:09;;;;;;;29.90;19.58;;;11.10;67.80;;;;;;4956584;28;20030;-87
2021/12/16 21:04:38;;;;;;;31.73;19.30;;;11.20;67.60;;;;;;4933694;29;20038;-88
2021/12/16 21:07:05;;;;;;;27.67;16.70;;;11.40;66.80;;;;;;4938469;29;20487;-87
2021/12/16 21:09:31;;;;;;;30.75;19.63;;;11.40;66.70;;;;;;4938620;29;20027;-88
2021/12/16 21:12:23;;;;;;;36.03;24.27;;;11.40;66.50;;;;;;4938450;29;20020;-87
2021/12/16 21:14:50;;;;;;;39.15;23.70;;;11.10;67.60;;;;;;4946704;23;20032;-87
2021/12/16 21:17:38;;;;;;;31.90;19.92;;;11.30;67.30;;;;;;4946459;29;20470;-86
2021/12/16 21:20:07;;;;;;;27.65;17.60;;;11.20;66.60;;;;;;4947110;29;20034;-86
2021/12/16 21:23:05;;;;;;;27.77;17.42;;;10.90;68.40;;;;;;4941793;29;20614;-89
2021/12/16 21:25:31;;;;;;;26.83;17.13;;;10.70;69.10;;;;;;4948786;28;20027;-88
2021/12/16 21:27:59;;;;;;;35.20;21.23;;;11.00;68.10;;;;;;4960860;28;20026;-88
2021/12/16 21:30:25;;;;;;;37.90;23.17;;;11.00;67.90;;;;;;4947318;29;20123;-90
2021/12/16 21:32:54;;;;;;;25.90;15.95;;;11.00;68.20;;;;;;4941451;29;20094;-88
2021/12/16 21:35:24;;;;;;;23.27;15.23;;;10.80;68.30;;;;;;4941889;29;20475;-91
2021/12/16 21:37:52;;;;;;;31.65;19.08;;;10.60;69.10;;;;;;4941923;29;20027;-92
2021/12/16 21:43:41;;;;;;;24.13;15.02;;;10.70;68.80;;;;;;4981209;23;20061;-89
2021/12/16 21:46:09;;;;;;;33.20;23.48;;;10.60;69.10;;;;;;4960622;28;20069;-90